Time;durP1;ratioP1;P1;durP2;ratioP2;P2;SDS_P1;SDS_P2;PMS_P1;PMS_P2;Temp;Humidity;BMP_temperature;BMP_pressure;BME280_temperature;BME280_humidity;BME280_pressure;Samples;Min_cycle;Max_cycle;Signal;HPM_P1;HPM_P2
2023/07/25 00:01:19;;;;;;;2.10;1.90;;;;;;;19.29;65.56;97860.50;5112848;28;40804;-78
2023/07/25 00:03:47;;;;;;;2.20;1.53;;;;;;;19.28;65.50;97859.69;5129949;27;41710;-80
2023/07/25 00:06:15;;;;;;;1.47;1.30;;;;;;;19.36;65.37;97861.50;5112859;28;43774;-77
2023/07/25 00:08:42;;;;;;;1.80;1.50;;;;;;;19.39;65.00;97866.53;5112263;28;42363;-79
2023/07/25 00:11:13;;;;;;;1.57;1.47;;;;;;;19.43;65.09;97857.06;5111859;28;40026;-78
2023/07/25 00:13:41;;;;;;;2.70;1.60;;;;;;;19.43;64.81;97857.06;5099862;28;41482;-77
2023/07/25 00:16:10;;;;;;;1.80;1.70;;;;;;;19.48;64.95;97860.09;5118647;28;41836;-77
2023/07/25 00:18:38;;;;;;;1.80;1.50;;;;;;;19.52;64.76;97849.88;5095308;28;42758;-80
2023/07/25 00:21:06;;;;;;;2.27;1.63;;;;;;;19.53;64.89;97851.53;5094534;28;38692;-78
2023/07/25 00:23:33;;;;;;;2.33;2.07;;;;;;;19.43;64.58;97827.53;5112489;28;41920;-78
2023/07/25 00:26:01;;;;;;;2.23;1.53;;;;;;;19.52;65.02;97850.72;5094284;28;41752;-80
2023/07/25 00:28:29;;;;;;;1.77;1.67;;;;;;;19.51;64.50;97849.03;5094230;28;42271;-78
2023/07/25 00:30:57;;;;;;;1.70;1.57;;;;;;;19.46;64.79;97832.56;5111166;28;40685;-79
2023/07/25 00:33:26;;;;;;;3.23;1.97;;;;;;;19.49;64.90;97840.31;5111639;28;42859;-79
2023/07/25 00:35:53;;;;;;;1.70;1.60;;;;;;;19.44;64.86;97826.53;5110897;28;42719;-77
2023/07/25 00:38:21;;;;;;;2.63;1.37;;;;;;;19.51;64.81;97843.66;5111291;28;42790;-79
2023/07/25 00:40:49;;;;;;;2.63;1.60;;;;;;;19.40;65.22;97824.41;5111404;28;40055;-77
2023/07/25 00:43:16;;;;;;;2.47;1.87;;;;;;;19.50;64.60;97852.72;5095408;28;40763;-78
2023/07/25 00:45:44;;;;;;;1.93;1.77;;;;;;;19.43;65.00;97840.97;5111997;28;43243;-77
2023/07/25 00:48:12;;;;;;;2.77;1.80;;;;;;;19.42;65.27;97835.78;5095007;28;41048;-78
2023/07/25 00:50:41;;;;;;;1.70;1.60;;;;;;;19.38;65.09;97827.25;5112772;28;40970;-80
2023/07/25 00:53:10;;;;;;;1.60;1.50;;;;;;;19.34;65.35;97817.88;5094837;28;42840;-76
2023/07/25 00:55:38;;;;;;;2.73;1.43;;;;;;;19.35;65.43;97816.84;5111818;28;41634;-77
2023/07/25 00:58:06;;;;;;;1.73;1.60;;;;;;;19.30;65.24;97813.84;5095182;28;41461;-78
2023/07/25 01:00:34;;;;;;;1.70;1.60;;;;;;;19.18;65.19;97807.22;5111675;28;40915;-77
2023/07/25 01:03:02;;;;;;;1.53;1.33;;;;;;;19.21;65.26;97820.28;5095237;28;40750;-78
2023/07/25 01:05:31;;;;;;;2.60;1.87;;;;;;;19.16;65.40;97809.25;5111762;28;42877;-77
2023/07/25 01:08:01;;;;;;;1.70;1.50;;;;;;;19.14;65.63;97819.34;5112975;28;43255;-77
2023/07/25 01:10:29;;;;;;;1.33;1.23;;;;;;;19.11;65.35;97819.66;5092631;28;39156;-78
2023/07/25 01:12:56;;;;;;;2.07;1.80;;;;;;;19.08;65.29;97811.97;5076547;28;40546;-78
2023/07/25 01:15:25;;;;;;;1.40;1.23;;;;;;;19.07;65.37;97818.34;5110487;28;43789;-79
2023/07/25 01:17:53;;;;;;;1.53;1.43;;;;;;;19.07;65.31;97812.97;5111015;28;43041;-76
2023/07/25 01:20:20;;;;;;;2.13;1.20;;;;;;;18.99;65.35;97795.91;5111727;28;40077;-78
2023/07/25 01:22:49;;;;;;;1.53;1.43;;;;;;;19.00;64.90;97792.22;5093632;28;40862;-77
2023/07/25 01:25:18;;;;;;;1.43;1.33;;;;;;;19.06;65.23;97795.19;5110451;28;42713;-78
2023/07/25 01:27:46;;;;;;;1.70;1.40;;;;;;;19.11;65.73;97804.41;5093561;28;42748;-78
2023/07/25 01:30:14;;;;;;;1.97;1.70;;;;;;;19.02;65.58;97784.00;5110153;28;39971;-77
2023/07/25 01:32:42;;;;;;;1.73;1.60;;;;;;;19.09;65.32;97798.38;5093309;28;42065;-79
2023/07/25 01:35:09;;;;;;;1.50;1.40;;;;;;;19.08;65.45;97801.22;5093004;28;41866;-78
2023/07/25 01:37:37;;;;;;;1.60;1.50;;;;;;;19.16;65.21;97806.56;5112001;27;42218;-80
2023/07/25 01:40:06;;;;;;;1.60;1.50;;;;;;;19.17;65.23;97800.16;5096796;28;39668;-77
2023/07/25 01:42:35;;;;;;;1.70;1.30;;;;;;;19.10;65.27;97780.44;5114124;28;41884;-79
2023/07/25 01:45:03;;;;;;;1.30;1.20;;;;;;;19.20;65.04;97792.59;5097504;28;42767;-77
2023/07/25 01:47:31;;;;;;;1.37;1.27;;;;;;;19.21;65.30;97796.97;5115073;28;41218;-79
2023/07/25 01:49:59;;;;;;;2.10;1.30;;;;;;;19.22;65.11;97793.28;5097600;28;40347;-79
2023/07/25 01:52:26;;;;;;;1.23;1.13;;;;;;;19.17;65.21;97776.00;5098367;28;42160;-77
2023/07/25 01:54:55;;;;;;;1.40;1.30;;;;;;;19.11;65.49;97766.00;5114468;28;43615;-80
2023/07/25 01:57:22;;;;;;;1.60;1.50;;;;;;;19.20;65.19;97791.78;5114933;28;43325;-77
2023/07/25 01:59:52;;;;;;;1.47;1.37;;;;;;;19.18;65.38;97799.16;5098088;28;38968;-78
2023/07/25 02:02:20;;;;;;;1.70;1.60;;;;;;;19.18;65.47;97800.00;5114628;28;42623;-77
2023/07/25 02:04:48;;;;;;;1.90;1.67;;;;;;;19.17;65.93;97797.47;5114511;28;42731;-79
2023/07/25 02:07:15;;;;;;;1.30;1.17;;;;;;;19.16;66.26;97798.53;5097464;28;41107;-79
2023/07/25 02:09:43;;;;;;;1.83;1.50;;;;;;;18.88;66.04;97748.00;5096275;28;38972;-78
2023/07/25 02:12:10;;;;;;;2.77;1.37;;;;;;;19.14;66.19;97787.97;5130557;27;40683;-78
2023/07/25 02:14:38;;;;;;;1.63;1.53;;;;;;;19.02;66.20;97776.78;5096116;28;41877;-77
2023/07/25 02:17:08;;;;;;;1.83;1.63;;;;;;;19.16;66.12;97790.47;5096308;28;42307;-79
2023/07/25 02:19:37;;;;;;;1.67;1.57;;;;;;;19.16;66.03;97795.84;5096204;28;38904;-79
2023/07/25 02:22:06;;;;;;;2.20;1.63;;;;;;;19.15;66.03;97805.75;5113293;28;42653;-79
2023/07/25 02:24:33;;;;;;;1.57;1.40;;;;;;;19.15;66.12;97805.75;5114530;28;42936;-79
2023/07/25 02:27:01;;;;;;;1.60;1.50;;;;;;;19.18;65.81;97799.16;5095908;28;41414;-77
2023/07/25 02:29:29;;;;;;;1.77;1.50;;;;;;;19.18;65.77;97791.94;5096010;28;40918;-80
2023/07/25 02:31:56;;;;;;;1.50;1.37;;;;;;;19.13;65.76;97774.72;5096395;28;40948;-80
2023/07/25 02:34:25;;;;;;;2.47;1.67;;;;;;;19.16;66.43;97775.22;5114341;28;42408;-79
2023/07/25 02:36:53;;;;;;;1.40;1.30;;;;;;;19.07;66.44;97759.31;5113004;28;41378;-78
2023/07/25 02:39:21;;;;;;;2.93;1.73;;;;;;;19.11;66.46;97760.63;5095743;28;40037;-79
2023/07/25 02:41:48;;;;;;;1.73;1.60;;;;;;;18.96;66.58;97736.38;5096996;28;40624;-77
2023/07/25 02:44:16;;;;;;;1.60;1.50;;;;;;;19.01;66.60;97760.84;5097021;28;41958;-76
2023/07/25 02:46:43;;;;;;;1.60;1.50;;;;;;;18.93;66.94;97753.66;5097177;28;42080;-77
2023/07/25 02:49:11;;;;;;;2.00;1.50;;;;;;;18.78;66.89;97743.88;5096699;28;38994;-77
2023/07/25 02:51:40;;;;;;;1.60;1.50;;;;;;;18.75;67.05;97754.94;5113669;28;41499;-78
2023/07/25 02:54:08;;;;;;;2.03;1.50;;;;;;;18.64;67.31;97748.13;5113704;28;42191;-79
2023/07/25 02:56:37;;;;;;;2.20;1.50;;;;;;;18.54;67.49;97742.09;5097923;28;20229;-78
2023/07/25 02:59:04;;;;;;;1.30;1.20;;;;;;;18.44;67.64;97730.72;5096758;28;39736;-76
2023/07/25 03:01:32;;;;;;;1.80;1.67;;;;;;;18.36;67.69;97725.38;5113926;28;41767;-78
2023/07/25 03:04:00;;;;;;;1.77;1.67;;;;;;;18.26;67.75;97723.75;5114057;28;42784;-79
2023/07/25 03:06:27;;;;;;;1.50;1.40;;;;;;;17.99;68.00;97693.81;5096664;28;41316;-77
2023/07/25 03:08:57;;;;;;;1.80;1.60;;;;;;;18.11;68.34;97717.41;5113592;28;39841;-78
2023/07/25 03:11:24;;;;;;;2.17;1.73;;;;;;;18.04;68.44;97708.41;5094526;28;40810;-79
2023/07/25 03:13:52;;;;;;;1.83;1.50;;;;;;;17.99;68.38;97704.53;5112435;28;41420;-79
2023/07/25 03:16:19;;;;;;;1.60;1.50;;;;;;;17.92;68.41;97699.88;5112533;28;42283;-78
2023/07/25 03:18:47;;;;;;;1.73;1.30;;;;;;;17.86;68.49;97689.81;5095505;28;39730;-78
2023/07/25 03:21:14;;;;;;;3.00;1.70;;;;;;;17.80;68.51;97695.03;5112665;28;41890;-79
2023/07/25 03:23:42;;;;;;;3.03;1.70;;;;;;;17.75;68.83;97689.34;5112126;28;43820;-79
2023/07/25 03:26:11;;;;;;;1.60;1.50;;;;;;;17.64;69.00;97681.66;5112528;28;42364;-77
2023/07/25 03:28:39;;;;;;;1.30;1.20;;;;;;;17.65;68.69;97691.38;5112565;28;39642;-80
2023/07/25 03:31:08;;;;;;;1.80;1.63;;;;;;;17.59;68.99;97688.31;5112297;28;42612;-79
2023/07/25 03:33:35;;;;;;;2.17;1.40;;;;;;;17.55;69.24;97680.81;5094991;28;41774;-78
2023/07/25 03:36:03;;;;;;;1.60;1.50;;;;;;;17.41;69.32;97662.75;5094885;28;42102;-79
2023/07/25 03:38:31;;;;;;;1.73;1.63;;;;;;;17.48;69.61;97675.28;5116195;28;38943;-78
2023/07/25 03:40:58;;;;;;;1.70;1.60;;;;;;;17.16;69.76;97625.28;5100275;28;40376;-77
2023/07/25 03:43:27;;;;;;;1.63;1.53;;;;;;;17.43;69.71;97677.59;5096114;28;42176;-78
2023/07/25 03:45:55;;;;;;;1.60;1.50;;;;;;;17.42;69.76;97675.97;5095705;28;42435;-78
2023/07/25 03:48:23;;;;;;;2.47;1.60;;;;;;;17.12;69.62;97640.00;5096054;28;38927;-77
2023/07/25 03:50:51;;;;;;;1.80;1.70;;;;;;;17.36;69.63;97692.66;5095393;28;40699;-78
2023/07/25 03:53:18;;;;;;;3.33;1.73;;;;;;;17.27;69.58;97680.31;5095832;28;42860;-77
2023/07/25 03:55:46;;;;;;;1.30;1.20;;;;;;;17.41;69.34;97700.22;5095466;28;41234;-78
2023/07/25 03:58:14;;;;;;;1.77;1.60;;;;;;;17.39;69.63;97697.69;5113077;28;40020;-77
2023/07/25 04:00:43;;;;;;;1.40;1.30;;;;;;;17.53;69.73;97705.06;5111817;27;41610;-79
2023/07/25 04:03:10;;;;;;;1.20;1.10;;;;;;;17.60;69.57;97706.06;5110845;28;43812;-78
2023/07/25 04:05:38;;;;;;;1.70;1.40;;;;;;;17.65;69.40;97704.75;5094338;28;42474;-78
2023/07/25 04:08:06;;;;;;;1.60;1.23;;;;;;;17.65;69.83;97707.44;5094613;28;40963;-80
2023/07/25 04:10:34;;;;;;;2.00;1.53;;;;;;;17.77;70.08;97708.75;5094189;28;41737;-78
2023/07/25 04:13:01;;;;;;;1.60;1.50;;;;;;;17.82;70.23;97693.00;5111467;28;42935;-78
2023/07/25 04:15:29;;;;;;;2.30;1.50;;;;;;;17.85;70.35;97693.50;5094156;28;41494;-78
2023/07/25 04:17:58;;;;;;;2.03;1.60;;;;;;;17.90;69.86;97691.16;5111462;28;39883;-78
2023/07/25 04:20:26;;;;;;;1.77;1.60;;;;;;;18.00;69.94;97698.19;5112057;28;41804;-78
2023/07/25 04:22:54;;;;;;;1.60;1.50;;;;;;;18.05;69.88;97696.66;5111270;28;41723;-77
2023/07/25 04:25:22;;;;;;;1.80;1.40;;;;;;;18.11;69.92;97692.44;5110852;28;41570;-76
2023/07/25 04:27:49;;;;;;;2.87;1.70;;;;;;;18.16;70.16;97690.13;5094102;28;39597;-78
2023/07/25 04:30:17;;;;;;;2.17;1.70;;;;;;;18.12;70.56;97678.88;5093619;28;40834;-76
2023/07/25 04:32:44;;;;;;;1.90;1.77;;;;;;;18.26;71.02;97690.75;5111139;28;42780;-76
2023/07/25 04:35:13;;;;;;;2.00;1.67;;;;;;;18.29;70.82;97696.59;5093710;28;42290;-77
2023/07/25 04:37:41;;;;;;;2.70;1.87;;;;;;;18.24;71.26;97685.56;5094106;28;38938;-78
2023/07/25 04:40:10;;;;;;;3.30;2.00;;;;;;;18.31;71.26;97693.72;5111088;28;41713;-77
2023/07/25 04:42:37;;;;;;;3.70;2.27;;;;;;;18.34;71.11;97709.47;5111907;28;41666;-79
2023/07/25 04:45:06;;;;;;;2.10;1.90;;;;;;;18.39;71.13;97704.44;5112176;28;42918;-77
2023/07/25 04:47:33;;;;;;;2.00;1.60;;;;;;;18.41;70.74;97710.47;5095185;28;38955;-78
2023/07/25 04:50:01;;;;;;;3.03;1.90;;;;;;;18.44;70.97;97711.94;5094320;28;40474;-78
2023/07/25 04:52:31;;;;;;;2.70;1.60;;;;;;;18.37;70.59;97693.03;5111863;28;41699;-78
2023/07/25 04:54:59;;;;;;;1.93;1.73;;;;;;;18.51;70.92;97713.78;5094238;28;42321;-78
2023/07/25 04:57:26;;;;;;;3.37;2.10;;;;;;;18.60;70.97;97725.31;5094413;28;39953;-77
2023/07/25 04:59:55;;;;;;;1.77;1.53;;;;;;;18.65;70.67;97736.38;5094219;28;42112;-78
2023/07/25 05:02:23;;;;;;;3.17;2.07;;;;;;;18.68;71.09;97733.31;5111512;28;42830;-77
2023/07/25 05:04:51;;;;;;;2.27;1.80;;;;;;;18.71;70.51;97737.50;5111542;28;42185;-79
2023/07/25 05:07:18;;;;;;;3.13;1.80;;;;;;;18.79;70.96;97729.44;5112904;28;40058;-78
2023/07/25 05:09:48;;;;;;;2.07;1.87;;;;;;;18.85;70.96;97740.31;5127704;27;40670;-78
2023/07/25 05:12:15;;;;;;;2.53;2.27;;;;;;;18.93;70.73;97734.88;5110182;27;43438;-78
2023/07/25 05:14:43;;;;;;;2.67;2.00;;;;;;;19.00;70.55;97741.22;5093326;28;41432;-78
2023/07/25 05:17:10;;;;;;;3.00;2.00;;;;;;;19.05;70.55;97746.06;5093506;28;39292;-77
2023/07/25 05:19:41;;;;;;;2.13;1.93;;;;;;;19.08;70.56;97750.25;5109907;28;42520;-78
2023/07/25 05:22:09;;;;;;;1.70;1.60;;;;;;;19.14;70.23;97744.19;5093991;28;43208;-78
2023/07/25 05:24:36;;;;;;;3.50;2.23;;;;;;;19.23;70.38;97743.09;5111220;28;41854;-79
2023/07/25 05:27:06;;;;;;;2.37;2.10;;;;;;;19.20;70.07;97708.56;5110157;28;40240;-79
2023/07/25 05:29:34;;;;;;;2.23;2.00;;;;;;;19.43;70.69;97728.19;5092912;28;40589;-75
2023/07/25 05:32:02;;;;;;;1.93;1.80;;;;;;;19.52;70.75;97723.66;5109893;28;42546;-75
2023/07/25 05:34:30;;;;;;;2.10;1.90;;;;;;;19.68;70.06;97715.44;5109629;28;42359;-74
2023/07/25 05:36:57;;;;;;;2.00;1.80;;;;;;;19.79;70.00;97714.16;5092583;28;39932;-75
2023/07/25 05:39:25;;;;;;;3.10;2.20;;;;;;;19.94;69.82;97709.66;5092726;28;40601;-75
2023/07/25 05:41:52;;;;;;;2.07;1.87;;;;;;;20.08;69.64;97715.06;5110515;28;42719;-74
2023/07/25 05:44:22;;;;;;;4.27;2.40;;;;;;;20.28;69.50;97714.53;5093490;28;41181;-75
2023/07/25 05:46:49;;;;;;;2.47;2.27;;;;;;;20.42;69.39;97706.50;5110507;28;40144;-75
2023/07/25 05:49:17;;;;;;;2.93;2.20;;;;;;;20.57;69.33;97705.66;5093283;28;40630;-75
2023/07/25 05:51:45;;;;;;;2.87;2.30;;;;;;;20.73;69.04;97705.47;5093114;28;41497;-76
2023/07/25 05:54:15;;;;;;;3.60;2.40;;;;;;;20.91;68.75;97703.19;5110373;28;43710;-75
2023/07/25 05:56:43;;;;;;;2.53;2.33;;;;;;;21.04;67.30;97681.81;5111636;28;40002;-74
2023/07/25 05:59:10;;;;;;;3.17;2.00;;;;;;;21.33;66.87;97691.69;5111727;28;41507;-76
2023/07/25 06:01:40;;;;;;;3.23;2.77;;;;;;;21.54;66.48;97690.81;5110391;28;42762;-76
2023/07/25 06:04:08;;;;;;;2.90;2.30;;;;;;;21.81;65.93;97690.03;5111147;28;42421;-76
2023/07/25 06:06:36;;;;;;;2.90;2.50;;;;;;;22.16;65.52;97695.50;5110777;28;40423;-76
2023/07/25 06:09:04;;;;;;;2.73;2.30;;;;;;;22.44;64.67;97690.06;5110708;28;41871;-77
2023/07/25 06:11:31;;;;;;;3.73;2.73;;;;;;;22.65;64.02;97702.63;5110011;28;43466;-78
2023/07/25 06:13:59;;;;;;;2.70;2.37;;;;;;;22.56;63.76;97678.50;5092120;28;41486;-77
2023/07/25 06:16:27;;;;;;;2.43;2.00;;;;;;;22.69;63.07;97703.91;5109621;28;40075;-76
2023/07/25 06:18:56;;;;;;;3.20;2.23;;;;;;;22.67;63.28;97695.16;5110444;28;41797;-77
2023/07/25 06:21:23;;;;;;;3.03;2.07;;;;;;;22.66;63.29;97698.91;5109569;28;41898;-77
2023/07/25 06:23:51;;;;;;;2.77;2.40;;;;;;;22.62;63.44;97698.47;5093763;28;41131;-76
2023/07/25 06:26:19;;;;;;;2.70;2.47;;;;;;;22.43;63.52;97689.25;5095889;28;39933;-76
2023/07/25 06:28:47;;;;;;;2.50;2.10;;;;;;;22.40;63.89;97705.81;5112722;28;42069;-77
2023/07/25 06:31:14;;;;;;;2.80;2.00;;;;;;;22.35;64.07;97702.91;5112670;28;41780;-77
2023/07/25 06:33:42;;;;;;;2.47;2.27;;;;;;;22.28;64.00;97696.59;5113650;28;42464;-77
2023/07/25 06:36:11;;;;;;;2.40;2.20;;;;;;;22.21;64.76;97698.44;5112726;28;40892;-77
2023/07/25 06:38:39;;;;;;;3.90;2.60;;;;;;;22.16;64.69;97706.28;5095414;28;40687;-77
2023/07/25 06:41:07;;;;;;;2.47;2.00;;;;;;;22.12;64.68;97697.78;5112985;28;42712;-77
2023/07/25 06:43:35;;;;;;;4.07;2.40;;;;;;;22.15;64.87;97697.34;5113656;28;41342;-77
2023/07/25 06:46:04;;;;;;;2.70;2.03;;;;;;;22.20;64.50;97686.00;5113388;28;40044;-77
2023/07/25 06:48:32;;;;;;;3.60;2.20;;;;;;;22.26;64.50;97681.66;5096631;28;41782;-76
2023/07/25 06:50:59;;;;;;;3.47;2.43;;;;;;;22.27;64.77;97688.72;5113944;28;43891;-76
2023/07/25 06:53:29;;;;;;;2.73;2.53;;;;;;;22.23;64.70;97690.16;5113458;28;41282;-74
2023/07/25 06:55:56;;;;;;;2.77;2.50;;;;;;;22.05;64.71;97683.41;5113179;28;38995;-75
2023/07/25 06:58:24;;;;;;;6.07;3.70;;;;;;;22.03;65.22;97688.16;5113238;28;41807;-75
2023/07/25 07:00:52;;;;;;;3.13;2.27;;;;;;;21.99;65.61;97684.19;5113078;28;41624;-76
2023/07/25 07:03:20;;;;;;;2.87;1.97;;;;;;;21.99;65.72;97684.19;5113245;28;42357;-76
2023/07/25 07:05:54;;;;;;;2.93;2.40;;;;;;;21.99;65.71;97681.50;5114294;28;40552;-75
2023/07/25 07:08:22;;;;;;;3.07;2.37;;;;;;;21.92;66.39;97674.34;5113234;28;42959;-74
2023/07/25 07:10:54;;;;;;;2.40;2.17;;;;;;;21.88;66.15;97669.34;5093732;28;42899;-75
2023/07/25 07:13:22;;;;;;;2.80;2.60;;;;;;;21.88;66.41;97666.66;5111968;28;41094;-75
2023/07/25 07:15:51;;;;;;;2.57;2.23;;;;;;;21.84;66.28;97665.38;5094904;28;39920;-75
2023/07/25 07:18:19;;;;;;;2.80;2.30;;;;;;;21.80;66.24;97661.41;5113290;28;41823;-74
2023/07/25 07:20:48;;;;;;;2.57;2.30;;;;;;;21.81;66.44;97652.31;5112024;28;42895;-75
2023/07/25 07:23:17;;;;;;;3.80;2.53;;;;;;;21.77;66.29;97651.00;5094505;28;42285;-76
2023/07/25 07:25:45;;;;;;;5.07;2.40;;;;;;;21.78;66.52;97657.25;5094658;28;39788;-75
2023/07/25 07:28:14;;;;;;;5.10;3.03;;;;;;;21.62;66.78;97650.28;5129062;27;41641;-75
2023/07/25 07:30:42;;;;;;;2.70;2.00;;;;;;;21.37;67.76;97643.66;5111564;28;43600;-74
2023/07/25 07:33:10;;;;;;;2.30;2.10;;;;;;;21.12;69.11;97643.19;5113086;28;42602;-76
2023/07/25 07:35:38;;;;;;;4.87;2.47;;;;;;;20.89;70.69;97629.91;5112085;27;39993;-75
2023/07/25 07:38:05;;;;;;;2.70;2.50;;;;;;;20.73;71.59;97625.56;5113052;28;41761;-75
2023/07/25 07:40:35;;;;;;;4.33;2.90;;;;;;;20.60;72.38;97627.28;5094712;28;41491;-75
2023/07/25 07:43:03;;;;;;;3.80;2.47;;;;;;;20.50;73.00;97622.22;5112488;28;43035;-75
2023/07/25 07:45:33;;;;;;;3.90;2.97;;;;;;;20.42;74.05;97622.28;5112381;28;39966;-75
2023/07/25 07:48:01;;;;;;;5.03;3.03;;;;;;;20.32;74.69;97625.25;5095051;28;40834;-76
2023/07/25 07:50:32;;;;;;;3.17;2.40;;;;;;;20.21;75.38;97623.03;5111716;28;43062;-76
2023/07/25 07:53:00;;;;;;;6.27;3.13;;;;;;;20.11;75.91;97627.88;5109329;28;42271;-76
2023/07/25 07:55:28;;;;;;;4.43;3.50;;;;;;;20.06;76.17;97632.94;5095223;28;40240;-76
2023/07/25 07:57:56;;;;;;;2.73;2.23;;;;;;;20.04;76.98;97632.28;5113635;28;41856;-76
2023/07/25 08:00:25;;;;;;;4.10;2.97;;;;;;;20.01;78.02;97635.38;5094853;28;41864;-76
2023/07/25 08:02:54;;;;;;;2.53;2.30;;;;;;;19.94;77.99;97629.91;5112301;28;42060;-76
2023/07/25 08:05:22;;;;;;;3.90;2.30;;;;;;;19.87;78.20;97620.09;5112260;28;40035;-76
2023/07/25 08:07:50;;;;;;;4.50;3.00;;;;;;;19.80;78.97;97627.19;5112389;28;42018;-76
2023/07/25 08:10:17;;;;;;;3.17;2.33;;;;;;;19.76;79.02;97628.59;5110452;28;43986;-76
2023/07/25 08:12:46;;;;;;;5.33;2.57;;;;;;;19.76;79.44;97639.34;5111000;28;43516;-77
2023/07/25 08:15:13;;;;;;;3.07;2.50;;;;;;;19.74;79.48;97628.78;5094153;28;41507;-77
2023/07/25 08:17:41;;;;;;;2.93;2.03;;;;;;;19.79;79.55;97636.25;5094459;28;41983;-77
2023/07/25 08:20:13;;;;;;;4.23;2.33;;;;;;;19.93;79.96;97638.13;5093698;28;41888;-76
2023/07/25 08:22:40;;;;;;;3.97;2.30;;;;;;;20.09;79.38;97648.72;5108366;28;42288;-76
2023/07/25 08:25:09;;;;;;;3.57;2.33;;;;;;;20.29;79.46;97649.81;5111093;28;40962;-76
2023/07/25 08:27:36;;;;;;;4.27;2.73;;;;;;;20.57;79.29;97647.31;5093993;28;41789;-76
2023/07/25 08:30:05;;;;;;;3.87;2.60;;;;;;;20.91;78.95;97643.97;5110888;28;42928;-76
2023/07/25 08:32:33;;;;;;;3.37;2.37;;;;;;;21.27;78.59;97637.72;5112272;28;42548;-76
2023/07/25 08:35:00;;;;;;;3.10;2.27;;;;;;;21.57;77.55;97643.81;5110991;28;40029;-76
2023/07/25 08:37:29;;;;;;;4.80;2.20;;;;;;;21.62;75.92;97641.38;5110942;28;41693;-77
2023/07/25 08:39:57;;;;;;;3.57;2.03;;;;;;;21.72;75.13;97642.72;5110581;28;41754;-76
2023/07/25 08:42:26;;;;;;;2.67;2.27;;;;;;;21.87;75.40;97650.69;5110690;28;41251;-76
2023/07/25 08:44:55;;;;;;;3.07;2.03;;;;;;;21.98;74.35;97652.00;5093394;28;38896;-76
2023/07/25 08:47:27;;;;;;;2.30;2.10;;;;;;;22.03;73.24;97644.19;5093258;28;41690;-77
2023/07/25 08:49:57;;;;;;;2.73;2.23;;;;;;;22.15;72.00;97656.06;5093183;28;41906;-77
2023/07/25 08:52:29;;;;;;;2.53;2.13;;;;;;;22.14;72.08;97652.53;5111260;28;42280;-77
2023/07/25 08:54:57;;;;;;;3.27;2.10;;;;;;;22.15;70.95;97661.47;5111295;28;38985;-77
2023/07/25 08:57:27;;;;;;;2.10;1.83;;;;;;;22.10;71.54;97667.47;5111607;28;41971;-76
2023/07/25 08:59:55;;;;;;;4.40;1.80;;;;;;;22.14;71.16;97670.59;5111110;28;43076;-77
2023/07/25 09:02:23;;;;;;;3.10;1.97;;;;;;;22.17;71.75;97670.19;5111159;28;42058;-76
2023/07/25 09:04:51;;;;;;;3.13;2.17;;;;;;;22.13;72.15;97660.84;5112278;28;41606;-75
2023/07/25 09:07:19;;;;;;;2.40;2.10;;;;;;;22.04;72.01;97672.81;5111172;28;42499;-75
2023/07/25 09:09:48;;;;;;;3.07;2.13;;;;;;;22.08;71.90;97674.09;5110095;28;43653;-75
2023/07/25 09:12:16;;;;;;;2.27;1.97;;;;;;;22.28;71.25;97663.41;5111240;28;42927;-75
2023/07/25 09:14:45;;;;;;;4.40;2.50;;;;;;;22.45;71.63;97662.91;5110015;28;39038;-76
2023/07/25 09:17:12;;;;;;;4.03;2.60;;;;;;;22.65;71.52;97659.44;5110350;28;41766;-76
2023/07/25 09:19:41;;;;;;;2.50;2.30;;;;;;;22.99;71.22;97659.41;5093038;28;42091;-76
2023/07/25 09:22:26;;;;;;;2.60;2.40;;;;;;;23.87;68.30;97658.25;5111462;28;43433;-76
2023/07/25 09:24:56;;;;;;;2.73;2.30;;;;;;;24.56;65.12;97662.31;5108658;28;40778;-77
2023/07/25 09:27:26;;;;;;;3.77;2.10;;;;;;;24.78;64.26;97652.03;5092976;28;41731;-77
2023/07/25 09:29:54;;;;;;;2.40;2.00;;;;;;;24.97;64.04;97653.84;5109948;28;42729;-77
2023/07/25 09:32:24;;;;;;;2.57;2.20;;;;;;;24.99;63.42;97649.84;5093214;28;41210;-77
2023/07/25 09:34:59;;;;;;;4.07;2.10;;;;;;;25.13;63.11;97645.19;5109989;28;40989;-77
2023/07/25 09:37:28;;;;;;;2.83;2.13;;;;;;;25.15;62.32;97651.22;5093033;28;40912;-77
2023/07/25 09:39:58;;;;;;;3.20;2.30;;;;;;;24.97;61.40;97646.53;5111193;28;42700;-77
2023/07/25 09:42:26;;;;;;;2.83;2.13;;;;;;;24.74;62.60;97634.53;5093851;28;42651;-76
2023/07/25 09:44:55;;;;;;;1.87;1.73;;;;;;;24.48;63.64;97630.91;5112025;28;39965;-77
2023/07/25 09:47:24;;;;;;;2.20;2.00;;;;;;;24.34;64.78;97618.47;5093800;28;40757;-77
2023/07/25 09:49:53;;;;;;;2.20;2.00;;;;;;;24.23;65.24;97616.44;5110296;28;43948;-78
2023/07/25 09:52:20;;;;;;;3.70;2.13;;;;;;;24.09;65.80;97615.59;5107387;28;43014;-77
2023/07/25 09:54:48;;;;;;;3.47;2.20;;;;;;;24.29;66.10;97615.56;5109916;28;39743;-77
2023/07/25 09:57:17;;;;;;;4.67;2.50;;;;;;;24.60;66.25;97631.88;5110258;27;41058;-77
2023/07/25 09:59:48;;;;;;;2.73;2.20;;;;;;;24.94;64.25;97619.06;5113551;28;43137;-77
2023/07/25 10:02:17;;;;;;;2.20;1.90;;;;;;;24.99;64.65;97611.09;5097116;28;42611;-77
2023/07/25 10:04:47;;;;;;;2.50;2.20;;;;;;;24.99;63.42;97605.69;5114306;28;39958;-77
2023/07/25 10:07:15;;;;;;;2.53;2.13;;;;;;;25.01;61.81;97606.31;5113922;28;40756;-77
2023/07/25 10:09:45;;;;;;;2.80;2.10;;;;;;;25.63;61.93;97601.91;5114218;28;44178;-77
2023/07/25 10:12:13;;;;;;;2.97;2.10;;;;;;;26.61;60.42;97594.63;5095678;28;41939;-76
2023/07/25 10:14:42;;;;;;;2.73;2.27;;;;;;;27.97;58.71;97604.69;5096441;28;40363;-77
2023/07/25 10:17:10;;;;;;;2.90;2.10;;;;;;;29.15;53.79;97623.31;5113044;28;42709;-77
2023/07/25 10:19:56;;;;;;;2.83;2.10;;;;;;;29.30;50.56;97626.28;5113000;28;41859;-77
2023/07/25 10:22:34;;;;;;;1.90;1.70;;;;;;;28.98;51.50;97599.78;5096278;28;41538;-76
2023/07/25 10:25:02;;;;;;;2.43;1.90;;;;;;;28.67;52.30;97599.19;5112788;28;40716;-77
2023/07/25 10:27:29;;;;;;;2.47;2.27;;;;;;;28.26;53.10;97596.66;5095806;28;41498;-77
2023/07/25 10:30:02;;;;;;;2.13;1.90;;;;;;;27.63;54.13;97589.19;5112962;28;42813;-77
2023/07/25 10:32:45;;;;;;;2.00;1.87;;;;;;;27.07;56.27;97583.16;5095931;28;41297;-77
2023/07/25 10:35:13;;;;;;;1.87;1.70;;;;;;;26.89;57.18;97579.63;5109680;28;38802;-77
2023/07/25 10:37:45;;;;;;;2.77;1.80;;;;;;;27.16;57.42;97580.94;5113071;28;41131;-77
2023/07/25 10:40:15;;;;;;;2.20;2.00;;;;;;;27.35;57.30;97604.25;5095832;28;42820;-76
2023/07/25 10:42:45;;;;;;;2.30;1.77;;;;;;;27.09;53.76;97619.06;5113111;28;42647;-77
2023/07/25 10:46:02;;;;;;;2.50;1.70;;;;;;;26.41;55.05;97610.34;5114313;28;41056;-76
2023/07/25 10:48:35;;;;;;;1.87;1.53;;;;;;;25.72;57.46;97593.28;5113757;28;40687;-76
2023/07/25 10:51:06;;;;;;;2.53;1.50;;;;;;;25.24;56.67;97606.56;5112844;28;42778;-76
2023/07/25 10:53:35;;;;;;;1.33;1.23;;;;;;;24.95;57.63;97593.66;5096485;28;42284;-77
2023/07/25 10:56:13;;;;;;;1.47;1.20;;;;;;;24.94;57.65;97603.66;5113152;28;38763;-76
2023/07/25 10:59:06;;;;;;;1.70;1.60;;;;;;;24.82;57.21;97607.22;5114084;28;42747;-76
2023/07/25 11:01:47;;;;;;;2.03;1.13;;;;;;;24.70;57.26;97604.38;5113312;28;42799;-76
2023/07/25 11:04:29;;;;;;;1.13;1.03;;;;;;;24.82;57.41;97585.56;5110815;28;43152;-76
2023/07/25 11:06:59;;;;;;;1.80;1.00;;;;;;;25.48;56.65;97571.56;5113475;28;38850;-76
2023/07/25 11:09:28;;;;;;;2.97;1.17;;;;;;;26.08;54.62;97600.66;5111030;28;40530;-76
2023/07/25 11:11:56;;;;;;;1.17;1.07;;;;;;;26.58;52.71;97600.50;5111139;28;42930;-76
2023/07/25 11:14:24;;;;;;;1.40;1.00;;;;;;;27.24;50.81;97615.94;5113505;28;42033;-77
2023/07/25 11:16:55;;;;;;;1.63;1.53;;;;;;;27.35;50.33;97566.19;5113460;28;39876;-77
2023/07/25 11:19:28;;;;;;;1.30;1.20;;;;;;;27.81;50.61;97597.28;5111293;28;41805;-77
2023/07/25 11:21:56;;;;;;;2.43;1.37;;;;;;;27.77;50.64;97588.75;5109059;28;43684;-77
2023/07/25 11:24:24;;;;;;;2.07;1.50;;;;;;;27.74;51.09;97588.38;5111857;28;42882;-77
2023/07/25 11:26:52;;;;;;;2.00;1.20;;;;;;;27.70;50.95;97581.75;5112126;28;39890;-77
2023/07/25 11:29:19;;;;;;;1.70;1.60;;;;;;;27.57;48.43;97582.00;5094704;28;41022;-77
2023/07/25 11:31:49;;;;;;;1.47;1.37;;;;;;;27.19;48.99;97542.44;5111799;28;44178;-76
2023/07/25 11:34:20;;;;;;;1.77;1.53;;;;;;;27.39;49.21;97575.53;5112801;28;42846;-76
2023/07/25 11:36:48;;;;;;;1.43;1.30;;;;;;;27.27;49.75;97571.97;5110088;28;41868;-77
2023/07/25 11:39:16;;;;;;;2.57;1.30;;;;;;;27.12;49.26;97566.16;5111842;28;41801;-77
2023/07/25 11:41:46;;;;;;;2.23;1.50;;;;;;;27.11;49.10;97567.22;5112583;28;42692;-77